Avon, Colorado
Current Conditions -  °F | °C
As of 6:50 PM on Thursday 23 Oct 2014 (Local Time) from KEGE Reporting Station
Clear Clear  
Wind Chill: 13°   Ceiling: Unl
Heat Index: 13°   Visibility: 10mi
Dew Point:   Wind: 5mph
Humidity: 51%   Direction: 60°ENE
Pressure: 30.28"   Gusts: NA
Location:  39.63°N, 106.52°W
Report Text: KEGE 240050Z 06004KT 10SM SKC 13/03 A3028
Loading
Personal Weather Stations






























Interactive Weather Map
Tropical Storm Tracking
New forecast layout! Learn more

10-Day Weather Forecast

Advertisements
Track Severe Weather on mobile